Time;durP1;ratioP1;P1;durP2;ratioP2;P2;SDS_P1;SDS_P2;PMS_P1;PMS_P2;Temp;Humidity;BMP_temperature;BMP_pressure;BME280_temperature;BME280_humidity;BME280_pressure;Samples;Min_cycle;Max_cycle;Signal;HPM_P1;HPM_P2
2023/02/20 00:01:22;;;;;;;65.65;32.90;;;5.80;99.90;;;;;;5073722;28;20068;-63
2023/02/20 00:03:48;;;;;;;65.22;33.50;;;5.80;99.90;;;;;;5072533;28;20031;-63
2023/02/20 00:06:13;;;;;;;64.70;31.85;;;5.80;99.90;;;;;;5073592;28;20033;-64
2023/02/20 00:08:40;;;;;;;70.63;34.03;;;5.70;99.90;;;;;;5073447;28;20021;-63
2023/02/20 00:11:05;;;;;;;65.57;33.53;;;5.70;99.90;;;;;;5073666;28;20509;-63
2023/02/20 00:13:31;;;;;;;64.75;33.35;;;5.70;99.90;;;;;;5073311;28;20040;-63
2023/02/20 00:15:56;;;;;;;67.93;32.67;;;5.70;99.90;;;;;;5073426;28;20043;-63
2023/02/20 00:18:22;;;;;;;69.95;33.92;;;5.70;99.90;;;;;;5073441;28;20031;-63
2023/02/20 00:20:47;;;;;;;65.10;32.65;;;5.70;99.90;;;;;;5073380;28;20446;-64
2023/02/20 00:23:13;;;;;;;66.55;31.27;;;5.70;99.90;;;;;;5072199;28;20478;-63
2023/02/20 00:25:38;;;;;;;64.38;30.67;;;5.70;99.90;;;;;;5073313;28;20028;-63
2023/02/20 00:28:04;;;;;;;61.85;29.40;;;5.70;99.90;;;;;;5073225;28;20410;-63
2023/02/20 00:30:30;;;;;;;53.70;27.98;;;5.70;99.90;;;;;;5073220;28;20025;-63
2023/02/20 00:32:57;;;;;;;57.85;27.63;;;5.70;99.90;;;;;;5073459;28;20375;-63
2023/02/20 00:35:23;;;;;;;53.97;27.75;;;5.70;99.90;;;;;;5072242;28;20082;-63
2023/02/20 00:37:50;;;;;;;52.65;26.15;;;5.70;99.90;;;;;;5072384;28;20536;-63
2023/02/20 00:40:17;;;;;;;45.70;24.52;;;5.70;99.90;;;;;;5072333;28;20024;-63
2023/02/20 00:42:42;;;;;;;46.72;23.70;;;5.70;99.90;;;;;;5073301;28;20024;-63
2023/02/20 00:45:09;;;;;;;43.80;22.83;;;5.70;99.90;;;;;;5073075;28;20127;-63
2023/02/20 00:47:34;;;;;;;44.33;24.00;;;5.70;99.90;;;;;;5073357;28;20052;-63
2023/02/20 00:50:00;;;;;;;43.60;22.90;;;5.70;99.90;;;;;;5073320;28;20497;-63
2023/02/20 00:52:25;;;;;;;37.90;21.33;;;5.70;99.90;;;;;;5073095;28;20055;-63
2023/02/20 00:54:51;;;;;;;38.67;20.55;;;5.70;99.90;;;;;;5072993;28;20111;-63
2023/02/20 00:57:17;;;;;;;37.15;19.20;;;5.70;99.90;;;;;;5072988;28;20029;-63
2023/02/20 00:59:42;;;;;;;32.17;18.42;;;5.70;99.90;;;;;;5073106;28;20114;-63
2023/02/20 01:02:08;;;;;;;27.45;16.90;;;5.70;99.90;;;;;;5072948;28;20055;-63
2023/02/20 01:04:34;;;;;;;30.55;16.05;;;5.70;99.90;;;;;;5071665;28;20032;-63
2023/02/20 01:07:00;;;;;;;24.23;14.77;;;5.70;99.90;;;;;;5073886;28;20036;-63
2023/02/20 01:09:26;;;;;;;22.35;14.85;;;5.70;99.90;;;;;;5076924;28;20024;-63
2023/02/20 01:11:52;;;;;;;24.08;13.95;;;5.70;99.90;;;;;;5076749;28;20028;-63
2023/02/20 01:14:18;;;;;;;26.35;13.65;;;5.70;99.90;;;;;;5075693;28;20035;-64
2023/02/20 01:16:45;;;;;;;24.75;14.75;;;5.70;99.90;;;;;;5075859;28;20402;-63
2023/02/20 01:19:10;;;;;;;24.10;14.00;;;5.70;99.90;;;;;;5075650;28;20398;-63
2023/02/20 01:21:36;;;;;;;25.23;13.27;;;5.60;99.90;;;;;;5076655;28;20028;-63
2023/02/20 01:24:01;;;;;;;25.52;14.40;;;5.60;99.90;;;;;;5076690;28;20037;-63
2023/02/20 01:26:27;;;;;;;28.77;15.57;;;5.60;99.90;;;;;;5076505;28;20059;-63
2023/02/20 01:28:52;;;;;;;30.42;15.27;;;5.50;99.90;;;;;;5076836;28;20131;-63
2023/02/20 01:31:18;;;;;;;31.65;15.27;;;5.50;99.90;;;;;;5076579;28;20450;-63
2023/02/20 01:33:43;;;;;;;31.48;15.05;;;5.50;99.90;;;;;;5076577;28;20095;-63
2023/02/20 01:36:09;;;;;;;31.20;15.65;;;5.50;99.90;;;;;;5076401;28;20040;-63
2023/02/20 01:38:36;;;;;;;28.45;15.57;;;5.50;99.90;;;;;;5076361;28;20111;-63
2023/02/20 01:41:01;;;;;;;30.75;16.58;;;5.50;99.90;;;;;;5075404;28;20432;-63
2023/02/20 01:43:27;;;;;;;31.30;15.57;;;5.50;99.90;;;;;;5076479;28;20044;-63
2023/02/20 01:45:53;;;;;;;32.70;17.50;;;5.60;99.90;;;;;;5076018;28;20048;-63
2023/02/20 01:48:21;;;;;;;35.08;16.13;;;5.60;99.90;;;;;;5076241;28;20028;-63
2023/02/20 01:50:49;;;;;;;31.85;17.13;;;5.70;99.90;;;;;;5075974;28;20372;-63
2023/02/20 01:53:18;;;;;;;35.20;16.73;;;5.70;99.90;;;;;;5076131;28;20029;-63
2023/02/20 01:55:54;;;;;;;36.30;17.63;;;5.70;99.90;;;;;;5076183;28;20044;-63
2023/02/20 01:58:26;;;;;;;37.13;18.10;;;5.80;99.90;;;;;;5075974;28;20475;-63
2023/02/20 02:00:54;;;;;;;36.13;16.47;;;5.80;99.90;;;;;;5076025;28;20031;-63
2023/02/20 02:03:27;;;;;;;36.72;17.20;;;5.80;99.90;;;;;;5075977;28;20111;-63
2023/02/20 02:06:00;;;;;;;37.22;16.85;;;5.80;99.90;;;;;;5075150;28;20032;-63
2023/02/20 02:08:27;;;;;;;37.50;17.87;;;5.80;99.90;;;;;;5074912;28;20367;-63
2023/02/20 02:11:02;;;;;;;37.20;18.13;;;5.90;99.90;;;;;;5075968;28;20737;-64
2023/02/20 02:13:29;;;;;;;39.60;19.42;;;5.90;99.90;;;;;;5074869;28;20100;-63
2023/02/20 02:16:35;;;;;;;38.88;18.48;;;6.00;99.90;;;;;;5074395;28;20029;-63
2023/02/20 02:19:40;;;;;;;42.22;18.77;;;6.00;99.90;;;;;;5075045;28;20036;-63
2023/02/20 02:22:45;;;;;;;36.88;18.05;;;6.00;99.90;;;;;;5075370;28;20064;-63
2023/02/20 02:25:32;;;;;;;40.00;17.63;;;6.00;99.90;;;;;;5075337;28;20389;-63
2023/02/20 02:28:27;;;;;;;47.03;19.25;;;6.10;99.90;;;;;;5075701;28;20052;-63
2023/02/20 02:31:31;;;;;;;40.97;18.65;;;6.10;99.90;;;;;;5091026;28;20028;-63
2023/02/20 02:34:18;;;;;;;44.50;18.75;;;6.10;99.90;;;;;;5075499;28;20025;-63
2023/02/20 02:37:23;;;;;;;41.35;19.60;;;6.10;99.90;;;;;;5075285;28;20044;-63
2023/02/20 02:40:03;;;;;;;45.13;19.02;;;6.10;99.90;;;;;;5075256;28;20066;-63
2023/02/20 02:42:55;;;;;;;39.70;19.08;;;6.10;99.90;;;;;;5074129;28;20112;-64
2023/02/20 02:45:35;;;;;;;38.25;18.30;;;6.20;99.90;;;;;;5075051;28;20044;-63
2023/02/20 02:48:27;;;;;;;39.25;17.90;;;6.20;99.90;;;;;;5075157;28;20564;-64
2023/02/20 02:50:58;;;;;;;44.47;19.13;;;6.20;99.90;;;;;;5075281;28;20462;-64
2023/02/20 02:53:24;;;;;;;37.53;18.42;;;6.10;99.90;;;;;;5075003;28;20021;-63
2023/02/20 02:55:49;;;;;;;38.17;18.20;;;6.10;99.90;;;;;;5075070;28;20469;-63
2023/02/20 02:58:15;;;;;;;44.75;18.60;;;6.00;99.90;;;;;;5075027;28;20036;-63
2023/02/20 03:00:48;;;;;;;34.95;17.08;;;6.00;99.90;;;;;;5075089;28;20115;-63
2023/02/20 03:03:21;;;;;;;34.55;17.73;;;5.90;99.90;;;;;;5073888;28;20394;-63
2023/02/20 03:06:08;;;;;;;33.35;16.17;;;6.00;99.90;;;;;;5074754;28;20085;-63
2023/02/20 03:09:00;;;;;;;38.58;18.02;;;5.90;99.90;;;;;;5074628;28;20478;-63
2023/02/20 03:11:29;;;;;;;37.30;17.23;;;6.00;99.90;;;;;;5074608;28;20020;-63
2023/02/20 03:17:14;;;;;;;34.67;16.75;;;6.10;99.90;;;;;;5073404;28;20107;-63
2023/02/20 03:19:44;;;;;;;37.70;17.17;;;6.00;99.90;;;;;;5073476;28;20025;-63
2023/02/20 03:22:17;;;;;;;41.38;17.75;;;6.10;99.90;;;;;;5074632;28;20016;-63
2023/02/20 03:24:59;;;;;;;;;;;6.10;99.90;;;;;;5074039;28;20052;-63
2023/02/20 03:27:41;;;;;;;32.63;16.50;;;6.10;99.90;;;;;;5074468;28;19909;-63
2023/02/20 03:30:17;;;;;;;40.55;18.70;;;6.10;99.90;;;;;;5072174;28;20067;-63
2023/02/20 03:44:03;;;;;;;42.05;18.02;;;6.10;99.90;;;;;;5073771;28;20032;-63
2023/02/20 03:46:32;;;;;;;37.28;17.27;;;6.10;99.90;;;;;;5072529;28;20447;-63
2023/02/20 03:49:04;;;;;;;38.00;17.25;;;6.10;99.90;;;;;;5074048;28;20020;-63
2023/02/20 03:51:30;;;;;;;36.53;16.30;;;6.20;99.90;;;;;;5073888;28;20505;-63
2023/02/20 03:53:57;;;;;;;42.35;18.02;;;6.10;99.90;;;;;;5074024;28;20433;-63
2023/02/20 03:56:29;;;;;;;38.03;17.15;;;6.10;99.90;;;;;;5074002;28;20051;-63
2023/02/20 03:59:00;;;;;;;37.58;18.27;;;6.10;99.90;;;;;;5073915;28;20025;-63
2023/02/20 04:01:27;;;;;;;34.38;16.65;;;6.20;99.90;;;;;;5072664;28;20516;-63
2023/02/20 04:03:55;;;;;;;32.63;15.55;;;6.20;99.90;;;;;;5072775;28;20444;-63
2023/02/20 04:06:25;;;;;;;34.47;15.07;;;6.20;99.90;;;;;;5072222;28;20029;-63
2023/02/20 04:08:59;;;;;;;31.48;14.77;;;6.20;99.90;;;;;;5072645;28;20028;-63
2023/02/20 04:11:41;;;;;;;30.80;13.98;;;6.20;99.90;;;;;;5072999;28;20025;-63
2023/02/20 04:14:08;;;;;;;32.22;15.05;;;6.30;99.90;;;;;;5073452;28;20028;-63
2023/02/20 04:16:40;;;;;;;34.92;15.35;;;6.30;99.90;;;;;;5073681;28;20037;-63
2023/02/20 04:19:06;;;;;;;33.63;14.57;;;6.30;99.90;;;;;;5073681;28;20036;-63
2023/02/20 04:21:40;;;;;;;36.83;15.43;;;6.30;99.90;;;;;;5073418;28;20108;-63
2023/02/20 04:24:11;;;;;;;32.63;15.35;;;6.40;99.90;;;;;;5072264;28;20077;-63
2023/02/20 04:26:37;;;;;;;29.63;14.27;;;6.40;99.90;;;;;;5073286;28;20032;-63
2023/02/20 04:29:04;;;;;;;31.92;14.13;;;6.40;99.90;;;;;;5073355;28;20451;-63
2023/02/20 04:31:30;;;;;;;26.73;13.15;;;6.40;99.90;;;;;;5073528;28;20027;-63
2023/02/20 04:33:55;;;;;;;27.27;13.82;;;6.40;99.90;;;;;;5073467;28;20474;-64
2023/02/20 04:36:22;;;;;;;35.22;14.80;;;6.40;99.90;;;;;;5073359;28;20025;-63
2023/02/20 04:38:47;;;;;;;30.23;13.95;;;6.40;99.90;;;;;;5072057;28;20032;-63
2023/02/20 04:41:13;;;;;;;31.73;13.88;;;6.40;99.90;;;;;;5073220;28;20066;-63
2023/02/20 04:43:38;;;;;;;31.17;14.07;;;6.40;99.90;;;;;;5073053;28;20037;-63
2023/02/20 04:46:04;;;;;;;33.88;14.35;;;6.40;99.90;;;;;;5072905;28;20051;-63
2023/02/20 04:48:30;;;;;;;31.70;13.18;;;6.30;99.90;;;;;;5073123;28;20024;-63
2023/02/20 04:50:55;;;;;;;35.15;14.27;;;6.40;99.90;;;;;;5073164;28;20032;-63
2023/02/20 04:53:21;;;;;;;28.88;14.15;;;6.30;99.90;;;;;;5072109;28;20017;-63
2023/02/20 04:55:46;;;;;;;29.88;13.23;;;6.30;99.90;;;;;;5073152;28;20034;-63
2023/02/20 04:58:12;;;;;;;30.63;13.55;;;6.30;99.90;;;;;;5073250;28;20390;-63
2023/02/20 05:00:38;;;;;;;27.30;13.35;;;6.30;99.90;;;;;;5072962;28;20021;-63
2023/02/20 05:03:03;;;;;;;28.92;13.52;;;6.30;99.90;;;;;;5073206;28;20420;-63
2023/02/20 05:05:29;;;;;;;31.98;14.70;;;6.30;99.90;;;;;;5072908;28;20395;-63
2023/02/20 05:07:59;;;;;;;29.45;12.98;;;6.30;99.90;;;;;;5072994;28;20468;-64
2023/02/20 05:10:26;;;;;;;27.30;13.00;;;6.30;99.90;;;;;;5071711;28;20021;-63
2023/02/20 05:12:51;;;;;;;27.90;12.48;;;6.30;99.90;;;;;;5073288;28;20115;-64
2023/02/20 05:15:18;;;;;;;29.38;12.88;;;6.30;99.90;;;;;;5072927;28;20155;-63
2023/02/20 05:17:43;;;;;;;31.88;13.20;;;6.30;99.90;;;;;;5072679;28;20078;-63
2023/02/20 05:20:10;;;;;;;26.20;13.45;;;6.30;99.90;;;;;;5072727;28;20433;-63
2023/02/20 05:22:35;;;;;;;30.90;12.90;;;6.30;99.90;;;;;;5071737;28;20474;-63
2023/02/20 05:25:01;;;;;;;26.95;12.82;;;6.20;99.90;;;;;;5072759;28;20036;-63
2023/02/20 05:27:27;;;;;;;30.15;13.10;;;6.30;99.90;;;;;;5072711;28;20036;-63
2023/02/20 05:29:55;;;;;;;27.77;12.60;;;6.20;99.90;;;;;;5072899;28;20020;-63
2023/02/20 05:32:23;;;;;;;30.20;13.90;;;6.20;99.90;;;;;;5071716;28;20028;-63
2023/02/20 05:34:49;;;;;;;28.77;13.70;;;6.20;99.90;;;;;;5071746;28;20021;-63
2023/02/20 05:37:17;;;;;;;28.90;12.90;;;6.30;99.90;;;;;;5071411;28;20029;-63
2023/02/20 05:39:42;;;;;;;29.85;13.18;;;6.30;99.90;;;;;;5071394;28;20107;-63
2023/02/20 05:42:08;;;;;;;31.65;12.77;;;6.30;99.90;;;;;;5072576;28;20117;-63
2023/02/20 05:44:34;;;;;;;32.38;13.05;;;6.30;99.90;;;;;;5071241;28;20028;-64
2023/02/20 05:47:00;;;;;;;28.33;13.25;;;6.20;99.90;;;;;;5072463;28;20048;-63
2023/02/20 05:49:26;;;;;;;32.30;12.63;;;6.30;99.90;;;;;;5072591;28;20027;-63
2023/02/20 05:51:54;;;;;;;29.70;13.20;;;6.30;99.90;;;;;;5072733;28;20383;-63
2023/02/20 05:54:20;;;;;;;30.98;13.23;;;6.30;99.90;;;;;;5074689;28;20482;-63
2023/02/20 05:56:46;;;;;;;24.02;12.07;;;6.30;99.90;;;;;;5076168;28;20036;-63
2023/02/20 05:59:15;;;;;;;29.15;11.82;;;6.30;99.90;;;;;;5075978;28;20032;-62
2023/02/20 06:01:41;;;;;;;25.30;12.10;;;6.30;99.90;;;;;;5074817;28;20119;-63
2023/02/20 06:04:06;;;;;;;26.52;11.13;;;6.30;99.90;;;;;;5075888;28;20070;-63
2023/02/20 06:06:36;;;;;;;25.00;11.70;;;6.30;99.90;;;;;;5074668;28;20135;-63
2023/02/20 06:09:06;;;;;;;27.27;13.32;;;6.30;99.90;;;;;;5074728;28;20074;-63
2023/02/20 06:11:32;;;;;;;30.80;13.07;;;6.30;99.90;;;;;;5075097;28;20403;-63
2023/02/20 06:13:58;;;;;;;25.42;12.32;;;6.30;99.90;;;;;;5075945;28;20031;-63
2023/02/20 06:16:25;;;;;;;29.05;12.63;;;6.40;99.90;;;;;;5075621;28;20025;-63
2023/02/20 06:18:51;;;;;;;27.35;12.20;;;6.40;99.90;;;;;;5075605;28;20032;-63
2023/02/20 06:21:17;;;;;;;28.23;12.75;;;6.40;99.90;;;;;;5074805;28;20050;-63
2023/02/20 06:23:44;;;;;;;30.63;12.15;;;6.30;99.90;;;;;;5074620;28;20025;-63
2023/02/20 06:26:11;;;;;;;27.95;11.73;;;6.30;99.90;;;;;;5075250;28;20033;-63
2023/02/20 06:28:37;;;;;;;27.95;11.85;;;6.30;99.90;;;;;;5074554;28;20035;-63
2023/02/20 06:31:04;;;;;;;34.20;13.60;;;6.30;99.90;;;;;;5075539;28;20028;-63
2023/02/20 06:33:30;;;;;;;31.27;12.23;;;6.30;99.90;;;;;;5075306;28;20026;-63
2023/02/20 06:35:55;;;;;;;27.77;11.77;;;6.30;99.90;;;;;;5075561;28;20108;-63
2023/02/20 06:38:21;;;;;;;26.08;12.48;;;6.20;99.90;;;;;;5075446;28;20139;-63
2023/02/20 06:40:47;;;;;;;27.85;12.13;;;6.20;99.90;;;;;;5074337;28;20082;-63
2023/02/20 06:43:13;;;;;;;26.65;13.35;;;6.30;99.90;;;;;;5075358;28;20040;-63
2023/02/20 06:45:38;;;;;;;30.50;14.13;;;6.30;99.90;;;;;;5075004;28;20059;-63
2023/02/20 06:48:04;;;;;;;31.35;15.75;;;6.30;99.90;;;;;;5075052;28;20078;-63
2023/02/20 06:50:29;;;;;;;35.33;16.50;;;6.30;99.90;;;;;;5074988;28;20056;-63
2023/02/20 06:52:55;;;;;;;46.22;21.17;;;6.40;99.90;;;;;;5075024;28;20024;-63
2023/02/20 06:55:20;;;;;;;38.90;21.65;;;6.50;99.90;;;;;;5075084;28;20029;-63
2023/02/20 06:57:46;;;;;;;44.83;24.20;;;6.40;99.90;;;;;;5074705;28;20024;-63
2023/02/20 07:00:12;;;;;;;52.50;25.58;;;6.40;99.90;;;;;;5074847;28;20021;-62
2023/02/20 07:02:38;;;;;;;51.92;28.48;;;6.50;99.90;;;;;;5073875;28;20017;-63
2023/02/20 07:05:04;;;;;;;52.20;27.75;;;6.40;99.90;;;;;;5074607;28;20497;-62
2023/02/20 07:07:30;;;;;;;59.13;31.23;;;6.40;99.90;;;;;;5073469;28;20029;-63
2023/02/20 07:09:55;;;;;;;62.15;31.73;;;6.40;99.90;;;;;;5074833;28;20033;-63
2023/02/20 07:12:21;;;;;;;60.60;32.25;;;6.40;99.90;;;;;;5074490;28;20031;-63
2023/02/20 07:14:50;;;;;;;65.32;34.63;;;6.40;99.90;;;;;;5074638;28;20078;-63
2023/02/20 07:17:15;;;;;;;69.72;34.60;;;6.40;99.90;;;;;;5074470;28;20052;-63
2023/02/20 07:19:41;;;;;;;72.97;38.10;;;6.40;99.90;;;;;;5074629;28;20094;-63
2023/02/20 07:22:06;;;;;;;70.88;38.33;;;6.30;99.90;;;;;;5074407;28;20028;-63
2023/02/20 07:24:35;;;;;;;70.22;39.15;;;6.30;99.90;;;;;;5074249;28;20027;-63
2023/02/20 07:27:01;;;;;;;73.78;41.15;;;6.30;99.90;;;;;;5074030;28;20438;-63
2023/02/20 07:29:27;;;;;;;78.68;42.17;;;6.30;99.90;;;;;;5074315;28;20032;-63
2023/02/20 07:31:52;;;;;;;75.97;41.85;;;6.30;99.90;;;;;;5074329;28;20475;-63
2023/02/20 07:34:18;;;;;;;78.28;41.83;;;6.30;99.90;;;;;;5074561;28;20016;-63
2023/02/20 07:36:43;;;;;;;87.95;43.75;;;6.30;99.90;;;;;;5074004;28;20482;-63
2023/02/20 07:39:11;;;;;;;77.30;42.72;;;6.30;99.90;;;;;;5074238;28;20441;-63
2023/02/20 07:41:36;;;;;;;88.50;44.95;;;6.30;99.90;;;;;;5072900;28;20032;-64
2023/02/20 07:44:03;;;;;;;82.50;43.95;;;6.30;99.90;;;;;;5073666;28;20041;-63
2023/02/20 07:46:32;;;;;;;81.40;44.05;;;6.60;99.90;;;;;;5071782;28;20033;-63
2023/02/20 07:48:59;;;;;;;79.72;43.10;;;6.30;99.90;;;;;;5073849;28;20036;-63
2023/02/20 07:51:25;;;;;;;80.55;43.05;;;6.30;99.90;;;;;;5073662;28;20161;-63
2023/02/20 07:53:52;;;;;;;89.22;43.63;;;6.30;99.90;;;;;;5073632;28;20108;-63
2023/02/20 07:56:19;;;;;;;76.32;41.45;;;6.30;99.90;;;;;;5072219;28;20041;-63
2023/02/20 07:58:46;;;;;;;70.28;41.53;;;6.30;99.90;;;;;;5073568;28;20393;-63
2023/02/20 08:01:11;;;;;;;71.40;41.45;;;6.30;99.90;;;;;;5073485;28;20486;-63
2023/02/20 08:03:37;;;;;;;71.43;41.00;;;6.30;99.90;;;;;;5073716;28;20028;-63
2023/02/20 08:06:03;;;;;;;69.47;35.47;;;6.30;99.90;;;;;;5072830;28;20170;-66
2023/02/20 08:08:28;;;;;;;67.03;37.20;;;6.30;99.90;;;;;;5057324;28;20028;-63
2023/02/20 08:10:54;;;;;;;71.88;38.15;;;6.40;99.90;;;;;;5062559;28;20031;-63
2023/02/20 08:13:19;;;;;;;67.35;35.60;;;6.40;99.90;;;;;;5068628;28;20052;-63
2023/02/20 08:15:46;;;;;;;58.25;33.88;;;6.50;99.90;;;;;;5072488;28;20028;-63
2023/02/20 08:18:13;;;;;;;59.10;33.55;;;6.40;99.90;;;;;;5072271;28;20489;-63
2023/02/20 08:20:39;;;;;;;60.75;32.20;;;6.40;99.90;;;;;;5071883;28;20060;-63
2023/02/20 08:23:04;;;;;;;65.93;32.95;;;6.40;99.90;;;;;;5072265;28;20442;-63
2023/02/20 08:25:31;;;;;;;63.17;34.92;;;6.40;99.90;;;;;;5073273;28;20037;-62
2023/02/20 08:27:57;;;;;;;61.50;32.17;;;6.40;99.90;;;;;;5070940;28;20027;-64
2023/02/20 08:30:26;;;;;;;60.47;34.45;;;6.40;99.90;;;;;;5072860;28;20032;-64
2023/02/20 08:32:53;;;;;;;58.85;31.20;;;6.40;99.90;;;;;;5071275;28;20020;-64
2023/02/20 08:35:19;;;;;;;56.15;28.70;;;6.40;99.90;;;;;;5072173;28;20052;-64
2023/02/20 08:37:45;;;;;;;56.92;31.63;;;6.40;99.90;;;;;;5072137;28;20428;-67
2023/02/20 08:40:11;;;;;;;60.72;30.88;;;6.50;99.90;;;;;;5063788;28;20073;-64
2023/02/20 08:42:37;;;;;;;58.90;30.02;;;6.50;99.90;;;;;;5071777;28;20508;-63
2023/02/20 08:45:04;;;;;;;60.72;29.63;;;6.50;99.90;;;;;;5071661;28;20052;-64
2023/02/20 08:47:29;;;;;;;56.60;29.52;;;6.50;99.90;;;;;;5071948;28;20029;-63
2023/02/20 08:49:55;;;;;;;62.83;31.73;;;6.50;99.90;;;;;;5077278;28;20047;-64
2023/02/20 08:52:20;;;;;;;64.60;31.30;;;6.50;99.90;;;;;;5093445;28;20016;-64
2023/02/20 08:54:47;;;;;;;62.33;32.17;;;6.60;99.90;;;;;;5090815;28;20024;-63
2023/02/20 08:57:13;;;;;;;61.58;34.33;;;6.60;99.90;;;;;;5086647;28;20036;-63
2023/02/20 08:59:39;;;;;;;65.22;33.88;;;6.60;99.90;;;;;;5070502;28;20021;-63
2023/02/20 09:02:05;;;;;;;66.78;34.80;;;6.60;99.90;;;;;;5072272;28;20029;-63
2023/02/20 09:04:31;;;;;;;65.60;33.25;;;6.60;99.90;;;;;;5071649;28;20611;-63
2023/02/20 09:06:57;;;;;;;67.72;35.35;;;6.70;99.90;;;;;;5063978;28;20049;-63
2023/02/20 09:09:22;;;;;;;75.22;37.88;;;6.70;99.90;;;;;;5072462;28;20453;-64
2023/02/20 09:11:48;;;;;;;62.45;36.92;;;6.70;99.90;;;;;;5060666;28;20112;-63
2023/02/20 09:14:13;;;;;;;72.88;36.35;;;6.70;99.90;;;;;;5057429;28;20516;-64
2023/02/20 09:16:41;;;;;;;65.75;36.67;;;6.70;99.90;;;;;;5072439;28;20495;-64
2023/02/20 09:19:08;;;;;;;68.38;36.83;;;6.80;99.90;;;;;;5071507;28;20515;-63
2023/02/20 09:21:34;;;;;;;68.05;35.80;;;6.70;99.90;;;;;;5072695;28;20517;-64
2023/02/20 09:23:59;;;;;;;61.80;34.75;;;6.70;99.90;;;;;;5066998;28;20020;-64
2023/02/20 09:26:25;;;;;;;59.58;32.85;;;6.80;99.90;;;;;;5071730;28;20371;-64
2023/02/20 09:28:50;;;;;;;66.18;33.17;;;6.80;99.90;;;;;;5073647;28;20165;-64
2023/02/20 09:31:16;;;;;;;63.15;33.38;;;6.90;99.90;;;;;;5075875;28;20031;-64
2023/02/20 09:33:46;;;;;;;59.83;32.05;;;6.90;99.90;;;;;;5074821;28;20016;-64
2023/02/20 09:36:11;;;;;;;54.70;28.95;;;6.90;99.90;;;;;;5075251;28;20382;-64
2023/02/20 09:38:37;;;;;;;55.92;29.90;;;7.00;99.90;;;;;;5075200;28;20025;-64
2023/02/20 09:41:03;;;;;;;57.05;28.73;;;7.00;99.90;;;;;;5059232;28;20044;-64
2023/02/20 09:43:47;;;;;;;66.90;30.30;;;7.00;99.90;;;;;;5070674;28;20051;-64
2023/02/20 09:46:19;;;;;;;54.30;27.75;;;7.10;99.90;;;;;;5075332;28;20075;-64
2023/02/20 09:49:13;;;;;;;52.10;27.80;;;7.10;99.90;;;;;;5074790;28;20024;-64
2023/02/20 09:51:43;;;;;;;56.13;28.75;;;7.00;99.90;;;;;;5091631;28;20023;-64
2023/02/20 09:54:16;;;;;;;50.50;27.08;;;7.10;99.90;;;;;;5081387;28;20021;-64
2023/02/20 09:56:48;;;;;;;58.97;29.70;;;7.10;99.90;;;;;;5073740;28;20032;-64
2023/02/20 09:59:24;;;;;;;59.53;30.47;;;7.00;99.90;;;;;;5074778;28;20098;-64
2023/02/20 10:02:18;;;;;;;65.15;30.45;;;7.00;99.90;;;;;;5075583;28;20094;-64
2023/02/20 10:04:47;;;;;;;63.20;31.02;;;7.00;99.90;;;;;;5074573;28;20077;-63
2023/02/20 10:07:24;;;;;;;64.95;30.50;;;7.10;99.90;;;;;;5075137;28;20482;-63
2023/02/20 10:09:50;;;;;;;56.78;29.98;;;7.10;99.90;;;;;;5069393;28;20029;-64
2023/02/20 10:15:48;;;;;;;61.30;30.27;;;7.10;99.90;;;;;;5060868;28;20400;-64
2023/02/20 10:18:25;;;;;;;53.42;27.23;;;7.00;99.90;;;;;;5050022;28;20095;-64
2023/02/20 10:21:04;;;;;;;62.70;28.35;;;7.10;99.90;;;;;;5068107;28;20552;-63
2023/02/20 10:23:42;;;;;;;55.40;29.80;;;7.10;99.90;;;;;;5069067;28;20120;-63
2023/02/20 10:26:21;;;;;;;56.90;29.50;;;7.20;99.90;;;;;;5070001;28;20486;-62
2023/02/20 10:28:49;;;;;;;59.05;29.67;;;7.20;99.90;;;;;;5064535;28;20482;-63
2023/02/20 10:31:42;;;;;;;58.72;27.85;;;7.20;99.90;;;;;;5067522;28;20035;-63
2023/02/20 10:34:17;;;;;;;54.38;26.70;;;7.20;99.90;;;;;;5069772;28;20068;-63
2023/02/20 10:36:49;;;;;;;51.80;27.25;;;7.20;99.90;;;;;;5068772;28;20020;-63
2023/02/20 10:39:18;;;;;;;60.53;28.10;;;7.20;99.90;;;;;;5070211;28;20098;-63
2023/02/20 10:42:09;;;;;;;57.95;27.00;;;7.30;99.90;;;;;;5069466;28;20021;-63
2023/02/20 10:44:41;;;;;;;56.50;26.92;;;7.30;99.90;;;;;;5069784;28;20029;-63
2023/02/20 10:47:18;;;;;;;51.97;27.58;;;7.30;99.90;;;;;;5088694;28;20063;-63
2023/02/20 10:50:05;;;;;;;54.00;27.30;;;7.40;99.90;;;;;;5074447;28;20047;-62
2023/02/20 10:52:41;;;;;;;53.22;26.20;;;7.40;99.90;;;;;;5068496;28;20056;-63
2023/02/20 10:55:17;;;;;;;46.95;24.70;;;7.40;99.90;;;;;;5068503;28;20064;-63
2023/02/20 10:57:50;;;;;;;47.75;25.85;;;7.50;99.90;;;;;;5049591;28;20056;-62
2023/02/20 11:00:24;;;;;;;56.75;24.67;;;7.50;99.90;;;;;;5065909;28;20050;-62
2023/02/20 11:02:56;;;;;;;49.55;25.60;;;7.60;99.90;;;;;;5068887;28;20028;-62
2023/02/20 11:05:25;;;;;;;43.23;24.27;;;7.70;99.90;;;;;;5068617;28;20042;-62
2023/02/20 11:07:51;;;;;;;45.15;24.38;;;7.70;99.90;;;;;;5068168;28;20021;-62
2023/02/20 11:10:17;;;;;;;45.00;23.98;;;7.70;99.90;;;;;;5057538;28;20028;-63
2023/02/20 11:12:48;;;;;;;49.33;24.58;;;7.70;99.90;;;;;;5048995;28;20029;-63
2023/02/20 11:15:18;;;;;;;49.20;24.00;;;7.70;99.90;;;;;;5063193;28;20029;-62
2023/02/20 11:17:48;;;;;;;41.40;22.83;;;7.70;99.90;;;;;;5068950;28;20524;-62
2023/02/20 11:23:33;;;;;;;41.30;22.95;;;7.70;99.90;;;;;;5089597;28;20312;-63
2023/02/20 11:26:22;;;;;;;46.42;23.38;;;7.70;99.90;;;;;;5090756;28;20486;-63
2023/02/20 11:29:11;;;;;;;42.92;22.85;;;7.70;99.90;;;;;;5085054;28;20036;-63
2023/02/20 11:31:37;;;;;;;45.95;23.83;;;7.80;99.90;;;;;;5068452;28;20028;-61
2023/02/20 11:34:04;;;;;;;43.67;22.70;;;7.90;99.90;;;;;;5072949;28;20028;-62
2023/02/20 11:36:41;;;;;;;47.50;23.17;;;7.90;99.90;;;;;;5082999;28;20115;-61
2023/02/20 11:39:18;;;;;;;49.67;24.75;;;7.90;99.90;;;;;;5070231;28;20032;-61
2023/02/20 11:41:44;;;;;;;45.88;23.70;;;7.90;99.90;;;;;;5089987;28;20040;-61
2023/02/20 11:44:17;;;;;;;54.30;25.67;;;7.90;99.90;;;;;;5076051;28;20074;-62
2023/02/20 11:46:46;;;;;;;52.33;25.85;;;7.90;99.90;;;;;;5067797;28;20025;-62
2023/02/20 11:49:24;;;;;;;50.85;25.73;;;7.90;99.90;;;;;;5068744;28;20025;-61
2023/02/20 11:51:49;;;;;;;48.47;25.55;;;7.90;99.90;;;;;;5069650;28;20025;-62
2023/02/20 11:54:20;;;;;;;49.55;25.63;;;7.90;99.90;;;;;;5068818;28;20029;-62
2023/02/20 11:56:59;;;;;;;54.58;28.27;;;7.90;99.90;;;;;;5067352;28;20029;-63
2023/02/20 11:59:36;;;;;;;52.55;27.60;;;7.90;99.90;;;;;;5069572;28;20028;-62
2023/02/20 12:05:12;;;;;;;61.08;32.78;;;7.90;99.90;;;;;;5089710;27;20401;-64
2023/02/20 12:07:52;;;;;;;61.20;32.28;;;7.90;99.90;;;;;;5085373;28;20025;-63
2023/02/20 12:10:42;;;;;;;65.50;34.22;;;7.90;99.90;;;;;;5079633;28;20025;-62
2023/02/20 12:13:12;;;;;;;71.10;36.97;;;7.90;99.90;;;;;;5085124;28;20034;-63
2023/02/20 12:15:38;;;;;;;73.00;36.38;;;7.90;99.90;;;;;;5079736;28;20024;-64
2023/02/20 12:18:24;;;;;;;66.38;36.67;;;7.90;99.90;;;;;;5089222;28;20034;-63
2023/02/20 12:21:01;;;;;;;72.95;39.38;;;7.90;99.90;;;;;;5089514;28;20507;-63
2023/02/20 12:23:44;;;;;;;80.30;38.83;;;7.90;99.90;;;;;;5088143;28;20024;-62
2023/02/20 12:26:33;;;;;;;77.22;40.40;;;7.90;99.90;;;;;;5090943;28;20077;-62
2023/02/20 12:29:13;;;;;;;77.28;40.25;;;7.90;99.90;;;;;;5078285;28;20466;-62
2023/02/20 12:32:00;;;;;;;75.50;40.35;;;7.90;99.90;;;;;;5083213;28;20108;-63
2023/02/20 12:34:40;;;;;;;81.65;40.30;;;7.90;99.90;;;;;;5069911;28;20032;-63
2023/02/20 12:37:14;;;;;;;82.53;40.80;;;8.00;99.90;;;;;;5069546;28;20384;-63
2023/02/20 12:40:00;;;;;;;71.70;41.58;;;;;;;;;;5049783;28;20108;-65
2023/02/20 12:42:56;;;;;;;71.68;38.70;;;8.10;99.90;;;;;;5067500;28;20033;-63
2023/02/20 12:45:38;;;;;;;73.97;38.63;;;8.10;99.90;;;;;;5068229;28;20029;-62
2023/02/20 12:48:33;;;;;;;73.32;40.35;;;8.10;99.90;;;;;;5048989;28;20029;-62
2023/02/20 12:51:13;;;;;;;64.85;35.78;;;8.10;99.90;;;;;;5056118;28;20479;-63
2023/02/20 12:54:11;;;;;;;70.22;36.17;;;8.10;99.90;;;;;;5085338;28;20025;-62
2023/02/20 12:56:56;;;;;;;64.85;32.72;;;8.10;99.90;;;;;;5065196;28;20109;-63
2023/02/20 12:59:29;;;;;;;63.45;33.13;;;8.10;99.90;;;;;;5060570;28;20606;-63
2023/02/20 13:02:03;;;;;;;63.35;33.53;;;8.00;99.90;;;;;;5062675;28;20554;-61
2023/02/20 13:04:41;;;;;;;64.18;33.70;;;8.00;99.90;;;;;;5060893;28;20090;-62
2023/02/20 13:07:23;;;;;;;59.58;31.70;;;8.00;99.90;;;;;;5069126;28;20485;-62
2023/02/20 13:10:01;;;;;;;59.55;33.22;;;8.00;99.90;;;;;;5063008;28;20025;-62
2023/02/20 13:12:26;;;;;;;69.88;32.92;;;8.00;99.90;;;;;;5059763;28;20111;-62
2023/02/20 13:15:03;;;;;;;63.35;32.55;;;8.00;99.90;;;;;;5062002;28;20096;-62
2023/02/20 13:17:52;;;;;;;67.50;32.83;;;8.00;99.90;;;;;;5054389;28;20051;-63
2023/02/20 13:20:23;;;;;;;63.83;32.78;;;8.00;99.90;;;;;;5054462;28;20479;-63